createdAt,value
2022-09-26T00:00:05.541Z,1.58
2022-09-26T00:02:33.052Z,2.47
2022-09-26T00:04:59.420Z,1.83
2022-09-26T00:07:26.045Z,2.25
2022-09-26T00:09:53.988Z,1.77
2022-09-26T00:12:20.383Z,0.98
2022-09-26T00:14:46.984Z,1.58
2022-09-26T00:17:13.402Z,3.00
2022-09-26T00:19:39.994Z,1.42
2022-09-26T00:22:06.497Z,0.50
2022-09-26T00:24:32.908Z,1.98
2022-09-26T00:26:59.334Z,2.25
2022-09-26T00:29:25.775Z,1.58
2022-09-26T00:31:52.488Z,1.70
2022-09-26T00:34:19.878Z,1.73
2022-09-26T00:36:46.336Z,2.10
2022-09-26T00:39:14.760Z,2.63
2022-09-26T00:41:41.483Z,1.50
2022-09-26T00:44:45.976Z,1.00
2022-09-26T00:47:37.223Z,1.88
2022-09-26T00:50:13.346Z,1.15
2022-09-26T00:52:45.199Z,1.55
2022-09-26T00:55:14.159Z,1.77
2022-09-26T00:57:47.594Z,2.58
2022-09-26T01:00:17.452Z,1.23
2022-09-26T01:02:44.732Z,2.00
2022-09-26T01:05:14.143Z,1.38
2022-09-26T01:07:40.703Z,1.25
2022-09-26T01:10:07.659Z,2.15
2022-09-26T01:12:36.641Z,1.10
2022-09-26T01:15:05.139Z,2.13
2022-09-26T01:17:31.718Z,1.70
2022-09-26T01:20:34.215Z,1.35
2022-09-26T01:23:21.815Z,1.58
2022-09-26T01:26:10.603Z,1.80
2022-09-26T01:29:10.948Z,2.58
2022-09-26T01:32:11.803Z,3.38
2022-09-26T01:35:00.231Z,1.33
2022-09-26T01:37:41.757Z,1.10
2022-09-26T01:40:31.860Z,1.55
2022-09-26T01:43:15.545Z,1.35
2022-09-26T01:46:26.033Z,1.25
2022-09-26T01:48:56.574Z,0.90
2022-09-26T01:51:28.543Z,2.97
2022-09-26T01:54:00.984Z,1.80
2022-09-26T01:56:29.840Z,1.92
2022-09-26T01:59:02.248Z,3.53
2022-09-26T02:01:31.661Z,0.88
2022-09-26T02:04:14.790Z,1.55
2022-09-26T02:07:00.635Z,2.40
2022-09-26T02:09:36.456Z,2.65
2022-09-26T02:12:06.896Z,1.27
2022-09-26T02:14:38.042Z,1.95
2022-09-26T02:17:13.233Z,1.33
2022-09-26T02:20:01.789Z,0.90
2022-09-26T02:22:34.495Z,1.48
2022-09-26T02:25:02.128Z,0.95
2022-09-26T02:27:29.275Z,0.93
2022-09-26T02:29:56.073Z,1.85
2022-09-26T02:32:27.964Z,0.82
2022-09-26T02:34:55.630Z,1.58
2022-09-26T02:37:22.202Z,2.58
2022-09-26T02:39:50.516Z,1.58
2022-09-26T02:42:32.722Z,1.88
2022-09-26T02:45:16.931Z,1.08
2022-09-26T02:48:08.161Z,1.27
2022-09-26T02:50:59.678Z,1.30
2022-09-26T02:53:32.200Z,0.50
2022-09-26T02:56:11.748Z,0.75
2022-09-26T02:58:59.751Z,0.43
2022-09-26T03:01:48.449Z,0.60
2022-09-26T03:04:28.076Z,0.77
2022-09-26T03:06:58.673Z,0.47
2022-09-26T03:09:25.860Z,1.75
2022-09-26T03:11:53.623Z,0.45
2022-09-26T03:14:21.195Z,0.30
2022-09-26T03:16:48.574Z,1.25
2022-09-26T03:19:22.513Z,1.20
2022-09-26T03:21:49.113Z,1.13
2022-09-26T03:24:15.498Z,1.03
2022-09-26T03:26:42.083Z,0.40
2022-09-26T03:29:08.758Z,0.70
2022-09-26T03:31:35.327Z,1.07
2022-09-26T03:34:01.809Z,0.93
2022-09-26T03:36:28.768Z,0.70
2022-09-26T03:38:55.280Z,0.60
2022-09-26T03:41:23.132Z,0.30
2022-09-26T03:43:49.628Z,0.47
2022-09-26T03:46:16.255Z,0.70
2022-09-26T03:48:43.172Z,1.37
2022-09-26T03:51:13.984Z,0.83
2022-09-26T03:53:42.261Z,0.67
2022-09-26T03:56:14.797Z,1.10
2022-09-26T03:58:42.883Z,0.80
2022-09-26T04:01:14.642Z,1.20
2022-09-26T04:03:47.763Z,1.38
2022-09-26T04:06:19.785Z,1.10
2022-09-26T04:08:48.173Z,1.27
2022-09-26T04:11:19.146Z,0.90
2022-09-26T04:13:54.424Z,0.50
2022-09-26T04:16:23.147Z,1.23
2022-09-26T04:18:50.483Z,1.13
2022-09-26T04:21:17.054Z,0.68
2022-09-26T04:23:44.507Z,1.37
2022-09-26T04:26:13.257Z,1.53
2022-09-26T04:28:40.853Z,0.82
2022-09-26T04:31:08.458Z,1.10
2022-09-26T04:33:34.995Z,0.83
2022-09-26T04:36:02.492Z,1.53
2022-09-26T04:38:32.517Z,1.73
2022-09-26T04:41:04.350Z,0.80
2022-09-26T04:43:31.674Z,0.87
2022-09-26T04:45:58.699Z,1.70
2022-09-26T04:48:25.296Z,1.33
2022-09-26T04:50:51.722Z,1.70
2022-09-26T04:53:19.257Z,0.93
2022-09-26T04:55:47.709Z,0.57
2022-09-26T04:58:15.702Z,2.10
2022-09-26T05:00:45.505Z,0.30
2022-09-26T05:03:13.644Z,1.13
2022-09-26T05:05:47.673Z,2.80
2022-09-26T05:08:14.983Z,1.83
2022-09-26T05:10:42.635Z,2.90
2022-09-26T05:13:09.955Z,1.47
2022-09-26T05:15:42.762Z,2.63
2022-09-26T05:18:11.296Z,0.60
2022-09-26T05:20:38.509Z,0.98
2022-09-26T05:23:07.766Z,3.27
2022-09-26T05:25:58.074Z,1.90
2022-09-26T05:28:25.475Z,2.10
2022-09-26T05:30:52.743Z,1.20
2022-09-26T05:33:20.157Z,1.27
2022-09-26T05:35:51.566Z,1.13
2022-09-26T05:38:18.031Z,1.57
2022-09-26T05:40:56.736Z,2.05
2022-09-26T05:43:29.096Z,2.83
2022-09-26T05:46:00.208Z,1.70
2022-09-26T05:48:29.807Z,0.88
2022-09-26T05:50:56.449Z,2.67
2022-09-26T05:53:23.379Z,0.90
2022-09-26T05:55:50.713Z,2.50
2022-09-26T05:58:18.984Z,2.30
2022-09-26T06:00:50.493Z,1.63
2022-09-26T06:03:16.981Z,1.60
2022-09-26T06:05:43.430Z,2.47
2022-09-26T06:08:10.204Z,1.73
2022-09-26T06:10:38.569Z,1.80
2022-09-26T06:13:05.819Z,1.23
2022-09-26T06:15:32.286Z,1.08
2022-09-26T06:18:04.770Z,1.13
2022-09-26T06:20:32.422Z,1.80
2022-09-26T06:22:59.699Z,1.63
2022-09-26T06:25:26.048Z,0.95
2022-09-26T06:27:59.987Z,1.20
2022-09-26T06:30:27.250Z,2.73
2022-09-26T06:32:54.271Z,0.70
2022-09-26T06:35:21.397Z,1.37
2022-09-26T06:37:48.931Z,1.53
2022-09-26T06:40:15.974Z,1.80
2022-09-26T06:42:43.425Z,0.87
2022-09-26T06:45:10.848Z,1.08
2022-09-26T06:47:37.423Z,1.00
2022-09-26T06:50:05.224Z,0.35
2022-09-26T06:52:34.925Z,1.15
2022-09-26T06:55:07.186Z,1.40
2022-09-26T06:57:40.070Z,1.87
2022-09-26T07:00:08.847Z,0.87
2022-09-26T07:02:35.546Z,1.02
2022-09-26T07:05:05.837Z,1.17
2022-09-26T07:07:40.284Z,1.02
2022-09-26T07:10:07.210Z,1.17
2022-09-26T07:12:33.696Z,1.30
2022-09-26T07:15:00.392Z,0.70
2022-09-26T07:17:27.048Z,2.13
2022-09-26T07:19:53.527Z,1.10
2022-09-26T07:22:19.943Z,2.87
2022-09-26T07:24:48.666Z,1.57
2022-09-26T07:27:16.184Z,2.05
2022-09-26T07:29:43.707Z,2.50
2022-09-26T07:32:10.083Z,1.37
2022-09-26T07:34:36.618Z,1.60
2022-09-26T07:37:03.042Z,0.83
2022-09-26T07:39:29.555Z,0.70
2022-09-26T07:41:56.088Z,1.33
2022-09-26T07:47:27.967Z,0.95
2022-09-26T07:50:13.414Z,0.65
2022-09-26T07:52:47.397Z,1.42
2022-09-26T07:55:18.092Z,1.13
2022-09-26T07:57:44.782Z,2.47
2022-09-26T08:00:14.567Z,2.05
2022-09-26T08:02:46.634Z,0.77
2022-09-26T08:05:20.347Z,1.92
2022-09-26T08:07:47.923Z,1.27
2022-09-26T08:10:20.136Z,0.50
2022-09-26T08:12:47.518Z,1.35
2022-09-26T08:15:15.189Z,1.65
2022-09-26T08:17:42.852Z,0.40
2022-09-26T08:20:11.042Z,1.33
2022-09-26T08:22:37.587Z,1.70
2022-09-26T08:25:06.756Z,1.45
2022-09-26T08:27:34.064Z,0.82
2022-09-26T08:30:00.842Z,0.93
2022-09-26T08:32:27.488Z,0.73
2022-09-26T08:34:54.225Z,1.00
2022-09-26T08:37:21.035Z,0.60
2022-09-26T08:39:48.225Z,0.57
2022-09-26T08:42:46.899Z,0.65
2022-09-26T08:45:42.055Z,0.52
2022-09-26T08:48:13.725Z,1.00
2022-09-26T08:50:51.921Z,0.77
2022-09-26T08:53:21.008Z,1.08
2022-09-26T08:55:49.026Z,1.15
2022-09-26T08:58:19.069Z,0.75
2022-09-26T09:00:48.026Z,0.73
2022-09-26T09:03:25.501Z,1.45
2022-09-26T09:05:54.761Z,0.73
2022-09-26T09:08:31.768Z,0.82
2022-09-26T09:11:24.209Z,0.95
2022-09-26T09:14:18.764Z,0.82
2022-09-26T09:17:09.751Z,0.70
2022-09-26T09:19:50.638Z,1.00
2022-09-26T09:22:38.830Z,0.45
2022-09-26T09:25:15.024Z,0.52
2022-09-26T09:28:05.455Z,0.63
2022-09-26T09:31:01.492Z,0.73
2022-09-26T09:33:39.286Z,0.45
2022-09-26T09:36:10.959Z,0.47
2022-09-26T09:38:41.004Z,0.47
2022-09-26T09:41:12.353Z,0.80
2022-09-26T09:43:51.882Z,0.30
2022-09-26T09:46:23.623Z,0.10
2022-09-26T09:48:55.047Z,0.32
2022-09-26T09:51:35.581Z,0.00
2022-09-26T09:54:18.048Z,0.10
2022-09-26T09:56:55.048Z,0.15
2022-09-26T09:59:38.118Z,0.20
2022-09-26T10:02:28.565Z,0.10
2022-09-26T10:05:13.626Z,0.77
2022-09-26T10:07:40.036Z,0.20
2022-09-26T10:10:14.951Z,0.17
2022-09-26T10:12:43.561Z,0.38
2022-09-26T10:15:22.358Z,0.00
2022-09-26T10:18:23.332Z,0.75
2022-09-26T10:20:52.776Z,0.30
2022-09-26T10:23:50.391Z,0.10
2022-09-26T10:26:27.651Z,0.10
2022-09-26T10:28:57.522Z,0.90
2022-09-26T10:31:29.460Z,0.10
2022-09-26T10:34:00.296Z,0.20
2022-09-26T10:36:36.511Z,0.50
2022-09-26T10:39:37.261Z,0.52
2022-09-26T10:42:06.553Z,0.20
2022-09-26T10:44:36.142Z,0.25
2022-09-26T10:47:10.018Z,0.00
2022-09-26T10:49:48.147Z,0.20
2022-09-26T10:52:25.792Z,0.30
2022-09-26T10:54:59.893Z,0.20
2022-09-26T10:57:33.514Z,0.20
2022-09-26T11:00:00.554Z,0.60
2022-09-26T11:02:28.467Z,0.40
2022-09-26T11:05:18.568Z,0.40
2022-09-26T11:07:49.047Z,0.20
2022-09-26T11:10:25.127Z,0.25
2022-09-26T11:12:57.767Z,0.20
2022-09-26T11:15:24.758Z,0.20
2022-09-26T11:17:52.794Z,0.57
2022-09-26T11:20:46.149Z,0.68
2022-09-26T11:23:30.113Z,0.30
2022-09-26T11:26:07.969Z,0.22
2022-09-26T11:28:52.199Z,0.10
2022-09-26T11:31:26.256Z,0.10
2022-09-26T11:33:53.992Z,0.35
2022-09-26T11:36:36.064Z,0.20
2022-09-26T11:39:31.264Z,0.15
2022-09-26T11:42:13.769Z,0.30
2022-09-26T11:44:53.760Z,0.75
2022-09-26T11:47:58.154Z,0.10
2022-09-26T11:50:27.667Z,0.65
2022-09-26T11:53:03.821Z,0.20
2022-09-26T11:55:33.321Z,0.20
2022-09-26T11:58:20.677Z,0.10
2022-09-26T12:01:03.332Z,0.15
2022-09-26T12:04:00.035Z,0.28
2022-09-26T12:06:34.935Z,0.10
2022-09-26T12:09:22.390Z,0.93
2022-09-26T12:12:15.211Z,0.10
2022-09-26T12:14:56.862Z,0.25
2022-09-26T12:17:36.107Z,0.15
2022-09-26T12:20:16.174Z,0.28
2022-09-26T12:22:48.839Z,0.10
2022-09-26T12:25:57.591Z,0.13
2022-09-26T12:28:49.088Z,0.20
2022-09-26T12:31:29.271Z,0.10
2022-09-26T12:34:07.759Z,0.20
2022-09-26T12:37:25.442Z,0.47
2022-09-26T12:40:10.089Z,0.20
2022-09-26T12:43:14.122Z,0.32
2022-09-26T12:46:13.083Z,1.25
2022-09-26T12:49:18.387Z,0.45
2022-09-26T12:51:47.492Z,0.10
2022-09-26T12:54:59.466Z,0.20
2022-09-26T12:58:10.807Z,0.20
2022-09-26T13:00:46.708Z,0.20
2022-09-26T13:03:32.778Z,0.10
2022-09-26T13:07:17.355Z,0.20
2022-09-26T13:10:04.890Z,0.93
2022-09-26T13:13:10.099Z,0.10
2022-09-26T13:15:44.699Z,0.30
2022-09-26T13:18:16.263Z,0.13
2022-09-26T13:20:44.931Z,0.38
2022-09-26T13:23:20.369Z,0.55
2022-09-26T13:25:52.740Z,0.10
2022-09-26T13:28:24.114Z,0.30
2022-09-26T13:30:59.453Z,0.10
2022-09-26T13:33:35.206Z,0.10
2022-09-26T13:36:03.472Z,0.10
2022-09-26T13:38:35.944Z,0.20
2022-09-26T13:41:32.450Z,0.10
2022-09-26T13:44:15.774Z,0.30
2022-09-26T13:47:01.808Z,0.20
2022-09-26T13:49:50.993Z,0.15
2022-09-26T13:53:00.833Z,0.10
2022-09-26T13:55:31.930Z,0.57
2022-09-26T13:58:06.789Z,0.10
2022-09-26T14:00:38.938Z,0.20
2022-09-26T14:03:16.504Z,0.10
2022-09-26T14:05:43.832Z,0.20
2022-09-26T14:08:44.662Z,0.35
2022-09-26T14:11:33.806Z,0.15
2022-09-26T14:14:18.994Z,0.20
2022-09-26T14:17:00.076Z,0.10
2022-09-26T14:19:39.314Z,0.10
2022-09-26T14:22:25.697Z,0.10
2022-09-26T14:24:53.440Z,0.15
2022-09-26T14:27:36.288Z,0.20
2022-09-26T14:30:26.121Z,0.35
2022-09-26T14:33:00.152Z,0.10
2022-09-26T14:35:38.420Z,0.28
2022-09-26T14:38:12.729Z,0.10
2022-09-26T14:40:39.809Z,0.35
2022-09-26T14:43:15.667Z,0.10
2022-09-26T14:45:53.362Z,0.13
2022-09-26T14:48:37.287Z,0.20
2022-09-26T14:51:20.741Z,0.10
2022-09-26T14:53:47.123Z,0.10
2022-09-26T14:56:35.296Z,0.17
2022-09-26T14:59:17.106Z,0.32
2022-09-26T15:01:44.321Z,0.10
2022-09-26T15:04:18.982Z,0.20
2022-09-26T15:06:54.349Z,0.38
2022-09-26T15:09:40.517Z,0.10
2022-09-26T15:12:17.191Z,0.43
2022-09-26T15:15:07.119Z,0.10
2022-09-26T15:17:41.574Z,0.40
2022-09-26T15:20:14.946Z,0.50
2022-09-26T15:22:43.028Z,0.32
2022-09-26T15:25:22.680Z,0.20
2022-09-26T15:27:53.969Z,0.47
2022-09-26T15:30:24.371Z,0.20
2022-09-26T15:32:56.390Z,0.10
2022-09-26T15:35:23.160Z,0.32
2022-09-26T15:37:49.664Z,0.20
2022-09-26T15:40:25.307Z,0.30
2022-09-26T15:43:09.662Z,0.50
2022-09-26T15:45:46.326Z,0.20
2022-09-26T15:48:18.866Z,0.15
2022-09-26T15:50:48.661Z,0.10
2022-09-26T15:53:23.154Z,0.32
2022-09-26T15:55:58.891Z,0.10
2022-09-26T15:58:40.531Z,0.10
2022-09-26T16:01:08.351Z,0.13
2022-09-26T16:03:39.443Z,0.13
2022-09-26T16:06:08.706Z,0.20
2022-09-26T16:08:38.337Z,0.10
2022-09-26T16:11:07.477Z,0.32
2022-09-26T16:13:40.393Z,0.30
2022-09-26T16:16:11.504Z,0.20
2022-09-26T16:18:40.212Z,0.40
2022-09-26T16:21:25.741Z,0.30
2022-09-26T16:23:54.787Z,0.35
2022-09-26T16:26:40.291Z,0.55
2022-09-26T16:29:08.409Z,0.20
2022-09-26T16:31:44.923Z,0.30
2022-09-26T16:34:26.095Z,0.25
2022-09-26T16:36:52.941Z,0.32
2022-09-26T16:39:22.506Z,0.20
2022-09-26T16:42:03.128Z,0.20
2022-09-26T16:44:36.865Z,0.95
2022-09-26T16:47:07.392Z,0.30
2022-09-26T16:49:47.094Z,0.22
2022-09-26T16:52:26.994Z,0.40
2022-09-26T16:54:55.396Z,0.40
2022-09-26T16:57:30.612Z,0.43
2022-09-26T17:00:25.992Z,0.10
2022-09-26T17:02:52.419Z,1.48
2022-09-26T17:05:20.925Z,0.50
2022-09-26T17:07:48.942Z,0.30
2022-09-26T17:10:17.626Z,0.68
2022-09-26T17:12:48.966Z,0.32
2022-09-26T17:15:20.293Z,0.38
2022-09-26T17:17:47.562Z,0.30
2022-09-26T17:20:15.633Z,0.35
2022-09-26T17:22:42.085Z,0.30
2022-09-26T17:25:13.034Z,0.30
2022-09-26T17:27:40.460Z,0.40
2022-09-26T17:30:14.650Z,0.50
2022-09-26T17:32:44.143Z,0.68
2022-09-26T17:35:16.713Z,0.22
2022-09-26T17:37:43.144Z,0.43
2022-09-26T17:40:19.722Z,0.45
2022-09-26T17:42:46.588Z,0.30
2022-09-26T17:45:13.309Z,0.20
2022-09-26T17:47:39.949Z,0.20
2022-09-26T17:50:07.686Z,0.55
2022-09-26T17:52:34.176Z,0.40
2022-09-26T17:55:04.640Z,0.73
2022-09-26T17:57:38.283Z,0.30
2022-09-26T18:00:11.077Z,0.20
2022-09-26T18:02:44.947Z,0.50
2022-09-26T18:05:38.465Z,0.65
2022-09-26T18:08:17.271Z,0.30
2022-09-26T18:10:52.560Z,1.05
2022-09-26T18:13:22.649Z,0.55
2022-09-26T18:15:51.169Z,1.20
2022-09-26T18:18:19.965Z,0.30
2022-09-26T18:20:48.736Z,0.47
2022-09-26T18:23:21.118Z,0.20
2022-09-26T18:25:49.960Z,0.30
2022-09-26T18:28:20.438Z,0.30
2022-09-26T18:30:48.380Z,0.40
2022-09-26T18:33:15.629Z,0.63
2022-09-26T18:35:44.073Z,0.40
2022-09-26T18:38:10.743Z,0.63
2022-09-26T18:40:43.543Z,0.30
2022-09-26T18:43:18.458Z,0.30
2022-09-26T18:45:45.129Z,0.30
2022-09-26T18:48:18.592Z,1.30
2022-09-26T18:50:45.533Z,0.40
2022-09-26T18:53:17.376Z,0.30
2022-09-26T18:56:02.488Z,1.05
2022-09-26T18:58:29.626Z,1.58
2022-09-26T19:01:13.469Z,0.55
2022-09-26T19:03:41.927Z,0.40
2022-09-26T19:06:14.226Z,0.40
2022-09-26T19:08:42.919Z,0.52
2022-09-26T19:11:23.721Z,0.30
2022-09-26T19:13:52.668Z,0.65
2022-09-26T19:16:19.768Z,0.43
2022-09-26T19:18:46.246Z,0.20
2022-09-26T19:21:44.980Z,0.50
2022-09-26T19:24:26.943Z,0.40
2022-09-26T19:26:55.893Z,0.50
2022-09-26T19:29:30.418Z,0.73
2022-09-26T19:31:57.012Z,0.55
2022-09-26T19:34:23.825Z,0.60
2022-09-26T19:36:52.282Z,0.70
2022-09-26T19:39:20.460Z,0.88
2022-09-26T19:41:47.349Z,1.08
2022-09-26T19:44:14.018Z,0.60
2022-09-26T19:46:41.973Z,0.35
2022-09-26T19:49:14.801Z,0.77
2022-09-26T19:51:41.427Z,0.85
2022-09-26T19:54:17.666Z,0.50
2022-09-26T19:56:45.632Z,0.40
2022-09-26T19:59:13.339Z,1.52
2022-09-26T20:01:42.121Z,1.73
2022-09-26T20:04:14.085Z,0.25
2022-09-26T20:06:40.572Z,0.55
2022-09-26T20:09:14.211Z,0.63
2022-09-26T20:11:40.711Z,0.82
2022-09-26T20:14:25.173Z,0.40
2022-09-26T20:16:57.476Z,0.75
2022-09-26T20:19:41.129Z,0.52
2022-09-26T20:22:13.470Z,0.52
2022-09-26T20:24:40.085Z,0.80
2022-09-26T20:27:08.049Z,0.57
2022-09-26T20:29:55.024Z,1.25
2022-09-26T20:32:21.512Z,0.30
2022-09-26T20:34:48.695Z,0.85
2022-09-26T20:37:15.271Z,0.30
2022-09-26T20:39:42.242Z,0.75
2022-09-26T20:42:08.855Z,0.50
2022-09-26T20:44:35.979Z,0.30
2022-09-26T20:47:04.666Z,0.50
2022-09-26T20:49:37.344Z,0.50
2022-09-26T20:52:04.818Z,0.52
2022-09-26T20:54:32.324Z,0.88
2022-09-26T20:57:01.274Z,0.35
2022-09-26T20:59:28.615Z,0.65
2022-09-26T21:01:56.969Z,0.77
2022-09-26T21:04:31.252Z,0.40
2022-09-26T21:06:58.068Z,1.10
2022-09-26T21:09:24.483Z,0.32
2022-09-26T21:11:51.166Z,0.32
2022-09-26T21:14:18.343Z,0.45
2022-09-26T21:16:47.930Z,0.52
2022-09-26T21:19:19.688Z,0.55
2022-09-26T21:21:46.368Z,0.50
2022-09-26T21:24:16.332Z,1.65
2022-09-26T21:26:43.105Z,0.75
2022-09-26T21:29:14.471Z,0.73
2022-09-26T21:31:41.437Z,0.55
2022-09-26T21:34:19.674Z,0.40
2022-09-26T21:36:46.731Z,0.50
2022-09-26T21:39:13.600Z,0.40
2022-09-26T21:41:40.104Z,0.30
2022-09-26T21:44:11.608Z,0.75
2022-09-26T21:46:38.256Z,0.45
2022-09-26T21:49:04.795Z,0.35
2022-09-26T21:51:31.255Z,0.65
2022-09-26T21:54:11.542Z,0.32
2022-09-26T21:56:49.252Z,0.30
2022-09-26T21:59:18.338Z,1.05
2022-09-26T22:01:44.835Z,1.40
2022-09-26T22:04:11.417Z,0.95
2022-09-26T22:06:37.794Z,1.95
2022-09-26T22:09:04.475Z,0.60
2022-09-26T22:11:30.994Z,0.40
2022-09-26T22:13:58.437Z,0.88
2022-09-26T22:16:25.524Z,1.00
2022-09-26T22:18:52.028Z,0.70
2022-09-26T22:21:18.915Z,0.85
2022-09-26T22:23:49.387Z,0.50
2022-09-26T22:26:16.741Z,0.20
2022-09-26T22:28:44.629Z,1.20
2022-09-26T22:31:11.834Z,0.30
2022-09-26T22:33:38.591Z,0.75
2022-09-26T22:36:05.439Z,0.75
2022-09-26T22:38:36.341Z,0.68
2022-09-26T22:41:05.196Z,0.60
2022-09-26T22:43:32.809Z,0.85
2022-09-26T22:46:12.140Z,0.57
2022-09-26T22:48:41.234Z,0.98
2022-09-26T22:51:08.603Z,0.77
2022-09-26T22:53:36.694Z,1.08
2022-09-26T22:56:05.183Z,1.05
2022-09-26T22:58:38.383Z,0.60
2022-09-26T23:01:07.372Z,1.27
2022-09-26T23:03:34.174Z,0.60
2022-09-26T23:06:00.834Z,0.93
2022-09-26T23:08:27.752Z,0.75
2022-09-26T23:10:55.473Z,0.60
2022-09-26T23:13:24.768Z,0.30
2022-09-26T23:15:51.827Z,0.82
2022-09-26T23:18:19.127Z,0.52
2022-09-26T23:20:46.285Z,0.45
2022-09-26T23:23:14.264Z,0.55
2022-09-26T23:25:49.178Z,0.80
2022-09-26T23:28:17.608Z,0.60
2022-09-26T23:30:44.978Z,0.30
2022-09-26T23:33:11.545Z,0.75
2022-09-26T23:35:38.777Z,0.40
2022-09-26T23:38:05.503Z,0.90
2022-09-26T23:40:32.382Z,1.05
2022-09-26T23:42:59.103Z,0.40
2022-09-26T23:45:26.776Z,0.70
2022-09-26T23:47:53.451Z,0.82
2022-09-26T23:50:20.011Z,0.88
2022-09-26T23:52:46.519Z,0.63
2022-09-26T23:55:13.047Z,0.50
2022-09-26T23:57:39.501Z,1.35
